Rochdale, Massachusetts
Current Conditions -  °F | °C
As of 11:54 AM on Tuesday 27 Jan 2015 (Local Time) from KORH Reporting Station
Moderate Snow Moderate Snow  
Wind Chill: -1°   Ceiling: 1300
Heat Index: 18°   Visibility: 0.5mi
Dew Point: 13°   Wind: 30mph
Humidity: 81%   Direction: 20°NNE
Pressure: 29.47"   Gusts: 41mph
Location:  42.19°N, 71.91°W
Report Text: KORH 271654Z 02026G36KT 1/2SM R11/2600V6000FT SN VV013 M08/M11 A2947 RMK AO2 PK WND 03045/1609 TWR VIS 1 SNB1558 SLP999 P0001 T10781106 $
Loading
Personal Weather Stations






























Interactive Weather Map New forecast layout! Learn more

10-Day Weather Forecast

Advertisements
Track Severe Weather on mobile